ADDS METAR Data INFO
IDs: Format: Raw Decoded Include TAF

Data at: 0849 UTC 22 Feb 2018

PAPG 220839Z AUTO 25003KT 1/2SM FZFG CLR M05/M06 A3041 RMK AO2 FZRANO
PAPG 220829Z AUTO 25003KT 3/4SM BR CLR M05/M06 A3041 RMK AO2 FZRANO
PAPG 220825Z AUTO 26003KT 1 1/2SM BR CLR M06/M06 A3041 RMK AO2 FZRANO
PAPG 220756Z AUTO 26003KT 10SM CLR M05/M06 A3040 RMK AO2 SLP299 T10501056 FZRANO
PAPG 220740Z AUTO 25003KT 4SM BR CLR M06/M07 A3040 RMK AO2 FZRANO
PAPG 220738Z AUTO 25003KT 1 1/2SM BR CLR M06/M06 A3040 RMK AO2 FZRANO
PAPG 220728Z AUTO 27004KT 3/4SM BR CLR M06/M06 A3040 RMK AO2 FZRANO
PAPG 220725Z AUTO 27004KT 1 3/4SM BR CLR M06/M06 A3040 RMK AO2 FZRANO
PAPG 220656Z 19003KT 10SM CLR M05/M06 A3040 RMK AO2 SLP297 T10501061
PAPG 220556Z 00000KT 10SM CLR M05/M06 A3040 RMK AO2 SLP297 T10501056 10022 21050 53001
PAPG 220456Z 24003KT 10SM CLR M04/M04 A3040 RMK AO2 SLP297 T10391044
PAPG 220356Z 00000KT 10SM CLR M04/M04 A3040 RMK AO2 SLP296 T10391044
PAPG 212356Z 00000KT 10SM CLR 02/M02 A3041 RMK AO2 SLP300 T00221022 10022 21022 57002
PAPG 212256Z 07003KT 10SM CLR 02/M02 A3041 RMK AO2 SLP300 T00171022
PAPG 212156Z 07003KT 10SM CLR 02/M03 A3041 RMK AO2 SLP302 T00221033
PAPG 212056Z 06003KT 10SM CLR 01/M03 A3041 RMK AO2 SLP302 T00111033 50004
PAPG 211956Z 08005KT 10SM CLR 01/M03 A3042 RMK AO2 SLP303 T00111033
PAPG 211856Z 07004KT 10SM SCT021 01/M03 A3041 RMK AO2 SLP302 T00111028
PAPG 211840Z 13004KT 10SM FEW019 01/M03 A3041 RMK AO2
PAPG 211756Z 14004KT 10SM FEW011 BKN019 M02/M03 A3040 RMK AO2 SLP299 T10221033 11017 21050 53018
PAPG 211656Z 19003KT 10SM FEW011 BKN019 M05/M06 A3037 RMK AO2 SLP287 T10501056
PAPG 211556Z 00000KT 10SM FEW011 BKN017 M03/M04 A3036 RMK AO2 SLP284 T10281039
PAPG 211456Z 27003KT 10SM BKN017 M02/M04 A3035 RMK AO2 SLP281 T10221044 53008
PAPG 211356Z AUTO 00000KT 10SM OVC017 M03/M04 A3034 RMK AO2 SLP277 T10281039 FZRANO
PAPG 211256Z AUTO 15004KT 10SM OVC017 M02/M03 A3033 RMK AO2 SLP274 T10171033 FZRANO
PAPG 210756Z AUTO VRB03KT 10SM SCT055 M03/M05 A3033 RMK AO2 SLP274 T10331050 FZRANO
PAPG 210656Z 00000KT 10SM FEW050 M03/M05 A3033 RMK AO2 SNE47 SLP275 P0000 T10281050
PAPG 210556Z 16003KT 10SM -SN SCT034 M01/M04 A3034 RMK AO2 UPB39E55SNB56 SLP278 P0000 60000 T10111044 10006 21022 51003